createdAt,value
2023-05-09T00:00:14.842Z,80.80
2023-05-09T00:02:46.219Z,81.10
2023-05-09T00:05:15.378Z,81.40
2023-05-09T00:07:43.247Z,81.50
2023-05-09T00:10:11.124Z,81.80
2023-05-09T00:12:38.840Z,81.90
2023-05-09T00:15:10.041Z,82.20
2023-05-09T00:17:38.854Z,82.20
2023-05-09T00:20:12.506Z,82.60
2023-05-09T00:22:41.252Z,82.70
2023-05-09T00:25:10.858Z,83.50
2023-05-09T00:27:38.604Z,83.10
2023-05-09T00:30:07.416Z,83.40
2023-05-09T00:32:35.134Z,83.50
2023-05-09T00:35:03.202Z,83.80
2023-05-09T00:37:31.684Z,84.10
2023-05-09T00:39:59.354Z,84.70
2023-05-09T00:42:26.858Z,84.90
2023-05-09T00:44:54.327Z,85.20
2023-05-09T00:47:24.339Z,85.50
2023-05-09T00:49:52.019Z,86.80
2023-05-09T00:52:23.421Z,86.20
2023-05-09T00:54:55.645Z,87.30
2023-05-09T00:57:23.621Z,87.60
2023-05-09T00:59:51.158Z,88.00
2023-05-09T01:02:19.259Z,88.30
2023-05-09T01:04:47.399Z,88.60
2023-05-09T01:07:38.685Z,89.00
2023-05-09T01:10:46.004Z,89.50
2023-05-09T01:13:19.335Z,90.00
2023-05-09T01:16:00.275Z,90.20
2023-05-09T01:18:44.877Z,90.30
2023-05-09T01:21:19.643Z,90.70
2023-05-09T01:24:16.705Z,90.90
2023-05-09T01:27:06.831Z,91.00
2023-05-09T01:29:42.673Z,91.30
2023-05-09T01:32:19.963Z,91.40
2023-05-09T01:34:50.185Z,91.60
2023-05-09T01:37:24.245Z,91.70
2023-05-09T01:39:56.504Z,92.00
2023-05-09T01:42:28.210Z,92.10
2023-05-09T01:44:56.313Z,92.40
2023-05-09T01:47:27.270Z,92.50
2023-05-09T01:49:56.465Z,92.90
2023-05-09T01:52:25.793Z,93.00
2023-05-09T01:54:53.843Z,93.30
2023-05-09T01:57:23.472Z,93.50
2023-05-09T01:59:52.558Z,94.10
2023-05-09T02:02:20.353Z,94.20
2023-05-09T02:04:49.196Z,94.50
2023-05-09T02:07:17.210Z,94.60
2023-05-09T02:09:45.658Z,95.40
2023-05-09T02:12:13.260Z,95.40
2023-05-09T02:14:40.769Z,95.70
2023-05-09T02:17:09.640Z,95.80
2023-05-09T02:19:37.049Z,96.00
2023-05-09T02:22:05.154Z,96.40
2023-05-09T02:24:36.749Z,96.30
2023-05-09T02:27:05.406Z,96.40
2023-05-09T02:29:40.709Z,96.70
2023-05-09T02:32:19.206Z,97.00
2023-05-09T02:34:47.477Z,97.30
2023-05-09T02:37:16.435Z,97.50
2023-05-09T02:39:44.554Z,97.80
2023-05-09T02:42:14.720Z,97.90
2023-05-09T02:44:42.057Z,98.10
2023-05-09T02:47:09.502Z,98.20
2023-05-09T02:49:37.016Z,98.20
2023-05-09T02:52:06.182Z,98.40
2023-05-09T02:54:33.595Z,98.60
2023-05-09T02:57:01.091Z,99.00
2023-05-09T02:59:28.957Z,99.10
2023-05-09T03:01:57.664Z,99.50
2023-05-09T03:04:28.197Z,99.90
2023-05-09T03:06:55.879Z,99.90
2023-05-09T03:09:25.010Z,99.90
2023-05-09T03:11:52.540Z,99.90
2023-05-09T03:14:19.866Z,99.90
2023-05-09T03:16:47.379Z,99.90
2023-05-09T03:19:23.031Z,99.90
2023-05-09T03:21:50.726Z,99.90
2023-05-09T03:24:18.282Z,99.90
2023-05-09T03:26:45.633Z,99.90
2023-05-09T03:29:13.125Z,99.90
2023-05-09T03:31:40.736Z,99.90
2023-05-09T03:34:13.083Z,99.90
2023-05-09T03:36:42.706Z,99.90
2023-05-09T03:39:12.606Z,99.90
2023-05-09T03:41:43.669Z,99.90
2023-05-09T03:44:11.365Z,99.90
2023-05-09T03:46:38.832Z,99.90
2023-05-09T03:49:06.867Z,99.90
2023-05-09T03:51:35.327Z,99.90
2023-05-09T03:54:05.701Z,99.90
2023-05-09T03:56:33.118Z,99.90
2023-05-09T03:59:00.773Z,99.90
2023-05-09T04:01:29.018Z,99.90
2023-05-09T04:03:58.736Z,99.90
2023-05-09T04:06:27.777Z,99.90
2023-05-09T04:08:55.277Z,99.90
2023-05-09T04:11:22.697Z,99.90
2023-05-09T04:13:50.663Z,99.90
2023-05-09T04:16:34.097Z,99.90
2023-05-09T04:19:01.561Z,99.80
2023-05-09T04:21:30.021Z,99.20
2023-05-09T04:24:03.144Z,98.90
2023-05-09T04:26:39.119Z,98.80
2023-05-09T04:29:09.504Z,97.80
2023-05-09T04:31:37.104Z,97.50
2023-05-09T04:34:06.622Z,97.30
2023-05-09T04:36:53.601Z,96.40
2023-05-09T04:39:30.674Z,95.90
2023-05-09T04:42:05.518Z,95.20
2023-05-09T04:44:33.440Z,94.90
2023-05-09T04:47:01.168Z,94.70
2023-05-09T04:49:28.676Z,94.10
2023-05-09T04:51:57.012Z,93.60
2023-05-09T04:54:24.499Z,92.90
2023-05-09T04:57:00.320Z,92.70
2023-05-09T04:59:36.657Z,92.60
2023-05-09T05:02:04.387Z,92.00
2023-05-09T05:04:32.635Z,91.30
2023-05-09T05:07:01.283Z,91.00
2023-05-09T05:09:29.386Z,90.60
2023-05-09T05:12:01.835Z,89.90
2023-05-09T05:14:31.519Z,88.60
2023-05-09T05:16:59.040Z,88.20
2023-05-09T05:19:26.685Z,87.90
2023-05-09T05:21:55.331Z,86.80
2023-05-09T05:24:24.025Z,86.40
2023-05-09T05:26:51.505Z,85.40
2023-05-09T05:29:20.444Z,83.90
2023-05-09T05:31:47.681Z,84.10
2023-05-09T05:34:16.574Z,83.70
2023-05-09T05:36:44.731Z,83.30
2023-05-09T05:39:12.456Z,82.70
2023-05-09T05:41:40.715Z,82.20
2023-05-09T05:44:08.568Z,80.50
2023-05-09T05:46:36.201Z,80.50
2023-05-09T05:49:04.082Z,79.50
2023-05-09T05:51:31.663Z,78.40
2023-05-09T05:54:02.427Z,78.30
2023-05-09T05:56:29.831Z,76.90
2023-05-09T05:58:58.073Z,76.30
2023-05-09T06:01:28.608Z,75.00
2023-05-09T06:03:57.928Z,74.80
2023-05-09T06:06:29.275Z,74.10
2023-05-09T06:09:03.502Z,74.40
2023-05-09T06:11:31.294Z,74.40
2023-05-09T06:14:02.571Z,74.00
2023-05-09T06:16:30.251Z,74.50
2023-05-09T06:18:57.685Z,74.40
2023-05-09T06:21:25.065Z,73.60
2023-05-09T06:24:08.353Z,72.70
2023-05-09T06:26:39.718Z,71.80
2023-05-09T06:29:19.117Z,71.90
2023-05-09T06:31:49.947Z,71.00
2023-05-09T06:34:18.189Z,71.10
2023-05-09T06:36:46.139Z,70.00
2023-05-09T06:39:13.574Z,69.30
2023-05-09T06:41:41.401Z,68.80
2023-05-09T06:44:10.564Z,68.80
2023-05-09T06:46:38.369Z,67.50
2023-05-09T06:49:13.672Z,68.80
2023-05-09T06:51:41.041Z,68.20
2023-05-09T06:54:10.752Z,68.50
2023-05-09T06:56:38.466Z,66.90
2023-05-09T06:59:13.833Z,67.10
2023-05-09T07:01:44.685Z,66.70
2023-05-09T07:04:15.172Z,66.30
2023-05-09T07:06:45.242Z,66.20
2023-05-09T07:09:20.538Z,66.50
2023-05-09T07:11:47.957Z,65.50
2023-05-09T07:14:16.182Z,65.30
2023-05-09T07:16:43.732Z,65.40
2023-05-09T07:19:13.701Z,64.80
2023-05-09T07:21:43.282Z,65.10
2023-05-09T07:24:13.806Z,64.80
2023-05-09T07:26:41.042Z,64.40
2023-05-09T07:29:08.241Z,64.40
2023-05-09T07:31:37.354Z,63.90
2023-05-09T07:34:04.730Z,64.40
2023-05-09T07:36:33.212Z,63.50
2023-05-09T07:39:01.934Z,63.20
2023-05-09T07:41:29.034Z,63.10
2023-05-09T07:43:56.520Z,63.00
2023-05-09T07:46:23.732Z,62.30
2023-05-09T07:48:51.034Z,62.80
2023-05-09T07:51:18.278Z,62.80
2023-05-09T07:53:45.392Z,63.10
2023-05-09T07:56:13.399Z,63.40
2023-05-09T07:58:41.173Z,64.30
2023-05-09T08:01:08.424Z,63.10
2023-05-09T08:03:35.925Z,62.40
2023-05-09T08:06:03.424Z,61.70
2023-05-09T08:08:30.757Z,61.70
2023-05-09T08:10:58.050Z,60.50
2023-05-09T08:13:25.797Z,60.90
2023-05-09T08:15:53.248Z,60.50
2023-05-09T08:18:20.985Z,59.90
2023-05-09T08:20:48.210Z,59.80
2023-05-09T08:23:15.382Z,60.00
2023-05-09T08:25:43.134Z,59.50
2023-05-09T08:28:10.884Z,59.90
2023-05-09T08:30:38.153Z,58.70
2023-05-09T08:33:05.428Z,57.90
2023-05-09T08:35:32.666Z,58.40
2023-05-09T08:37:59.776Z,58.60
2023-05-09T08:40:27.045Z,58.40
2023-05-09T08:42:54.546Z,57.50
2023-05-09T08:45:29.884Z,57.80
2023-05-09T08:47:57.815Z,57.60
2023-05-09T08:50:25.703Z,57.10
2023-05-09T08:52:53.621Z,55.70
2023-05-09T08:55:21.697Z,55.30
2023-05-09T08:57:49.636Z,54.50
2023-05-09T09:00:20.835Z,54.70
2023-05-09T09:02:49.223Z,54.30
2023-05-09T09:05:39.444Z,54.10
2023-05-09T09:08:07.329Z,53.90
2023-05-09T09:10:35.423Z,54.30
2023-05-09T09:13:05.081Z,54.00
2023-05-09T09:15:37.202Z,53.60
2023-05-09T09:18:10.104Z,54.00
2023-05-09T09:20:46.187Z,52.70
2023-05-09T09:23:21.096Z,52.00
2023-05-09T09:25:48.953Z,51.20
2023-05-09T09:28:16.120Z,51.70
2023-05-09T09:30:48.442Z,52.50
2023-05-09T09:33:23.908Z,52.30
2023-05-09T09:35:52.843Z,51.70
2023-05-09T09:38:22.492Z,52.30
2023-05-09T09:40:57.430Z,50.90
2023-05-09T09:43:32.158Z,51.20
2023-05-09T09:46:04.068Z,51.00
2023-05-09T09:48:35.868Z,51.20
2023-05-09T09:51:11.400Z,52.10
2023-05-09T09:53:43.688Z,52.10
2023-05-09T09:56:11.398Z,50.70
2023-05-09T09:58:39.034Z,50.40
2023-05-09T10:01:14.109Z,48.70
2023-05-09T10:03:46.333Z,48.20
2023-05-09T10:06:16.017Z,47.30
2023-05-09T10:08:47.287Z,47.80
2023-05-09T10:11:15.413Z,47.00
2023-05-09T10:13:43.727Z,46.00
2023-05-09T10:16:12.906Z,45.90
2023-05-09T10:18:43.018Z,45.90
2023-05-09T10:21:14.747Z,45.90
2023-05-09T10:23:47.005Z,45.70
2023-05-09T10:26:23.557Z,45.60
2023-05-09T10:28:55.800Z,44.80
2023-05-09T10:31:27.324Z,43.80
2023-05-09T10:33:56.006Z,43.40
2023-05-09T10:36:26.629Z,41.80
2023-05-09T10:38:55.598Z,42.90
2023-05-09T10:41:28.726Z,42.50
2023-05-09T10:43:58.485Z,41.80
2023-05-09T10:46:27.333Z,40.40
2023-05-09T10:48:55.524Z,38.60
2023-05-09T10:51:24.703Z,38.60
2023-05-09T10:53:52.433Z,39.10
2023-05-09T10:56:34.025Z,39.00
2023-05-09T10:59:01.554Z,37.50
2023-05-09T11:01:39.078Z,37.90
2023-05-09T11:04:15.120Z,37.00
2023-05-09T11:06:47.600Z,37.00
2023-05-09T11:09:53.845Z,36.90
2023-05-09T11:12:24.045Z,33.10
2023-05-09T11:14:56.312Z,32.30
2023-05-09T11:17:24.646Z,31.80
2023-05-09T11:19:52.061Z,32.50
2023-05-09T11:22:27.496Z,30.40
2023-05-09T11:25:02.322Z,31.80
2023-05-09T11:27:37.182Z,33.20
2023-05-09T11:30:07.669Z,33.70
2023-05-09T11:32:59.172Z,32.70
2023-05-09T11:35:27.593Z,32.30
2023-05-09T11:38:06.567Z,33.50
2023-05-09T11:40:36.293Z,33.70
2023-05-09T11:43:03.822Z,33.90
2023-05-09T11:45:33.412Z,34.20
2023-05-09T11:48:01.338Z,34.00
2023-05-09T11:50:29.328Z,34.20
2023-05-09T11:52:56.522Z,35.10
2023-05-09T11:55:25.630Z,35.00
2023-05-09T11:57:54.450Z,33.50
2023-05-09T12:00:25.751Z,33.80
2023-05-09T12:02:53.632Z,33.50
2023-05-09T12:05:23.199Z,33.40
2023-05-09T12:07:50.945Z,33.60
2023-05-09T12:10:23.409Z,33.10
2023-05-09T12:12:55.344Z,33.40
2023-05-09T12:15:23.145Z,32.30
2023-05-09T12:18:09.044Z,33.40
2023-05-09T12:20:51.274Z,32.90
2023-05-09T12:23:19.132Z,33.20
2023-05-09T12:25:56.945Z,34.70
2023-05-09T12:28:25.603Z,34.60
2023-05-09T12:30:54.047Z,34.40
2023-05-09T12:33:22.367Z,33.70
2023-05-09T12:36:13.724Z,32.60
2023-05-09T12:38:42.128Z,32.30
2023-05-09T12:41:22.444Z,32.40
2023-05-09T12:43:58.370Z,33.60
2023-05-09T12:46:25.732Z,33.10
2023-05-09T12:48:53.091Z,32.70
2023-05-09T12:51:22.072Z,31.50
2023-05-09T12:53:49.977Z,31.10
2023-05-09T12:56:23.519Z,30.50
2023-05-09T12:58:53.249Z,30.40
2023-05-09T13:01:28.654Z,29.70
2023-05-09T13:04:05.140Z,29.90
2023-05-09T13:06:33.140Z,30.20
2023-05-09T13:09:02.970Z,30.80
2023-05-09T13:11:30.569Z,31.70
2023-05-09T13:13:58.750Z,31.70
2023-05-09T13:16:26.207Z,31.90
2023-05-09T13:18:53.520Z,32.70
2023-05-09T13:21:21.101Z,33.10
2023-05-09T13:23:50.093Z,34.50
2023-05-09T13:26:17.482Z,34.60
2023-05-09T13:28:44.879Z,33.80
2023-05-09T13:31:12.148Z,33.20
2023-05-09T13:33:39.479Z,33.10
2023-05-09T13:36:07.210Z,33.50
2023-05-09T13:38:38.850Z,32.20
2023-05-09T13:41:07.383Z,30.90
2023-05-09T13:43:35.649Z,30.10
2023-05-09T13:46:03.484Z,30.60
2023-05-09T13:48:30.754Z,30.90
2023-05-09T13:50:59.833Z,32.20
2023-05-09T13:53:27.356Z,34.70
2023-05-09T13:55:54.518Z,35.30
2023-05-09T13:58:21.706Z,36.90
2023-05-09T14:00:48.872Z,37.60
2023-05-09T14:03:16.619Z,38.20
2023-05-09T14:05:43.929Z,38.40
2023-05-09T14:08:11.178Z,38.90
2023-05-09T14:10:38.377Z,39.10
2023-05-09T14:13:05.655Z,38.90
2023-05-09T14:15:33.220Z,38.70
2023-05-09T14:18:00.737Z,38.50
2023-05-09T14:20:28.382Z,39.80
2023-05-09T14:22:59.677Z,40.20
2023-05-09T14:25:27.296Z,40.20
2023-05-09T14:27:54.864Z,41.20
2023-05-09T14:30:23.072Z,41.90
2023-05-09T14:32:50.858Z,42.20
2023-05-09T14:35:18.566Z,42.30
2023-05-09T14:37:45.951Z,42.40
2023-05-09T14:40:14.918Z,42.80
2023-05-09T14:42:42.562Z,43.60
2023-05-09T14:45:12.715Z,43.50
2023-05-09T14:47:41.181Z,43.10
2023-05-09T14:50:11.334Z,42.90
2023-05-09T14:52:38.557Z,43.10
2023-05-09T14:55:07.422Z,43.40
2023-05-09T14:57:34.585Z,44.00
2023-05-09T15:00:16.751Z,44.50
2023-05-09T15:02:47.428Z,45.10
2023-05-09T15:05:14.822Z,45.10
2023-05-09T15:07:41.954Z,44.90
2023-05-09T15:10:09.923Z,44.40
2023-05-09T15:12:37.161Z,44.50
2023-05-09T15:15:17.977Z,44.90
2023-05-09T15:17:46.372Z,45.00
2023-05-09T15:20:20.397Z,45.20
2023-05-09T15:22:49.629Z,45.10
2023-05-09T15:25:17.875Z,44.50
2023-05-09T15:27:45.139Z,44.60
2023-05-09T15:30:13.025Z,45.20
2023-05-09T15:32:43.533Z,45.30
2023-05-09T15:35:18.522Z,44.80
2023-05-09T15:37:46.120Z,44.70
2023-05-09T15:40:13.827Z,44.90
2023-05-09T15:42:41.473Z,45.20
2023-05-09T15:45:10.053Z,45.50
2023-05-09T15:47:37.560Z,45.40
2023-05-09T15:50:05.499Z,45.40
2023-05-09T15:52:33.012Z,45.90
2023-05-09T15:55:01.089Z,45.60
2023-05-09T15:57:28.739Z,45.90
2023-05-09T15:59:56.164Z,45.90
2023-05-09T16:02:24.909Z,46.00
2023-05-09T16:04:52.508Z,46.00
2023-05-09T16:07:20.743Z,46.30
2023-05-09T16:09:48.445Z,46.20
2023-05-09T16:12:16.109Z,46.30
2023-05-09T16:14:43.538Z,46.70
2023-05-09T16:17:11.524Z,46.90
2023-05-09T16:19:38.875Z,47.10
2023-05-09T16:22:06.248Z,47.20
2023-05-09T16:24:33.783Z,47.10
2023-05-09T16:27:01.140Z,47.40
2023-05-09T16:29:28.638Z,47.30
2023-05-09T16:31:56.175Z,47.50
2023-05-09T16:34:23.624Z,47.30
2023-05-09T16:36:52.371Z,48.00
2023-05-09T16:39:19.868Z,48.10
2023-05-09T16:41:47.308Z,48.30
2023-05-09T16:44:15.443Z,48.30
2023-05-09T16:46:43.051Z,48.70
2023-05-09T16:49:11.182Z,48.80
2023-05-09T16:51:38.788Z,49.00
2023-05-09T16:54:06.730Z,49.20
2023-05-09T16:56:35.180Z,49.50
2023-05-09T16:59:03.046Z,49.60
2023-05-09T17:01:30.589Z,49.90
2023-05-09T17:03:57.987Z,50.00
2023-05-09T17:06:26.275Z,49.80
2023-05-09T17:08:53.818Z,49.90
2023-05-09T17:11:22.649Z,49.90
2023-05-09T17:13:50.129Z,50.00
2023-05-09T17:16:17.436Z,50.20
2023-05-09T17:18:47.452Z,50.50
2023-05-09T17:21:16.038Z,50.70
2023-05-09T17:23:43.585Z,50.90
2023-05-09T17:26:11.011Z,50.80
2023-05-09T17:28:38.556Z,51.10
2023-05-09T17:31:05.905Z,51.30
2023-05-09T17:33:33.175Z,51.20
2023-05-09T17:36:00.407Z,51.40
2023-05-09T17:38:27.622Z,51.70
2023-05-09T17:40:54.978Z,51.60
2023-05-09T17:43:24.198Z,51.80
2023-05-09T17:45:52.457Z,52.00
2023-05-09T17:48:19.993Z,51.90
2023-05-09T17:50:47.389Z,52.00
2023-05-09T17:53:14.614Z,52.10
2023-05-09T17:55:42.650Z,52.10
2023-05-09T17:58:09.962Z,52.20
2023-05-09T18:00:37.597Z,52.20
2023-05-09T18:03:05.255Z,52.20
2023-05-09T18:05:32.613Z,52.40
2023-05-09T18:08:01.462Z,52.30
2023-05-09T18:10:29.221Z,52.40
2023-05-09T18:12:56.664Z,52.70
2023-05-09T18:15:26.137Z,52.70
2023-05-09T18:17:54.844Z,52.70
2023-05-09T18:20:22.255Z,53.00
2023-05-09T18:22:49.486Z,53.00
2023-05-09T18:25:17.259Z,53.20
2023-05-09T18:27:44.521Z,53.20
2023-05-09T18:30:12.448Z,53.30
2023-05-09T18:32:40.561Z,53.50
2023-05-09T18:35:09.237Z,53.40
2023-05-09T18:37:36.993Z,53.50
2023-05-09T18:40:05.551Z,53.80
2023-05-09T18:42:32.762Z,53.70
2023-05-09T18:45:00.880Z,53.80
2023-05-09T18:47:28.294Z,53.90
2023-05-09T18:49:55.499Z,53.90
2023-05-09T18:52:22.755Z,54.20
2023-05-09T18:54:49.991Z,54.40
2023-05-09T18:57:17.241Z,54.60
2023-05-09T18:59:44.811Z,54.60
2023-05-09T19:02:12.218Z,54.80
2023-05-09T19:04:42.534Z,55.00
2023-05-09T19:07:10.182Z,55.10
2023-05-09T19:09:40.360Z,55.70
2023-05-09T19:12:13.464Z,55.30
2023-05-09T19:14:43.938Z,55.40
2023-05-09T19:17:14.124Z,55.70
2023-05-09T19:19:42.515Z,55.70
2023-05-09T19:22:10.878Z,55.90
2023-05-09T19:24:38.269Z,56.10
2023-05-09T19:27:07.200Z,56.20
2023-05-09T19:29:35.199Z,56.50
2023-05-09T19:32:04.719Z,56.70
2023-05-09T19:34:32.488Z,56.70
2023-05-09T19:37:03.543Z,57.20
2023-05-09T19:39:30.778Z,57.10
2023-05-09T19:42:00.878Z,57.20
2023-05-09T19:44:28.552Z,57.50
2023-05-09T19:46:58.435Z,57.70
2023-05-09T19:49:26.750Z,58.30
2023-05-09T19:51:54.289Z,58.90
2023-05-09T19:54:26.236Z,59.70
2023-05-09T19:56:56.150Z,60.20
2023-05-09T19:59:25.377Z,61.60
2023-05-09T20:01:52.803Z,61.30
2023-05-09T20:04:24.058Z,61.60
2023-05-09T20:06:54.687Z,62.10
2023-05-09T20:09:22.900Z,62.40
2023-05-09T20:11:53.728Z,62.80
2023-05-09T20:14:22.301Z,62.90
2023-05-09T20:16:51.325Z,63.10
2023-05-09T20:19:22.011Z,63.20
2023-05-09T20:21:49.973Z,63.40
2023-05-09T20:24:19.197Z,63.80
2023-05-09T20:26:46.553Z,63.80
2023-05-09T20:29:15.636Z,64.00
2023-05-09T20:31:49.284Z,64.10
2023-05-09T20:34:18.247Z,64.20
2023-05-09T20:36:53.236Z,64.20
2023-05-09T20:39:21.983Z,64.50
2023-05-09T20:41:50.770Z,65.10
2023-05-09T20:44:18.633Z,64.60
2023-05-09T20:46:46.445Z,64.60
2023-05-09T20:49:14.680Z,64.70
2023-05-09T20:51:42.381Z,65.00
2023-05-09T20:54:10.659Z,64.90
2023-05-09T20:56:38.441Z,65.20
2023-05-09T20:59:06.062Z,65.00
2023-05-09T21:01:36.823Z,65.10
2023-05-09T21:04:05.652Z,65.30
2023-05-09T21:06:33.175Z,65.50
2023-05-09T21:09:00.533Z,65.60
2023-05-09T21:11:27.668Z,65.90
2023-05-09T21:13:54.833Z,66.00
2023-05-09T21:16:26.223Z,66.10
2023-05-09T21:18:53.481Z,66.20
2023-05-09T21:21:20.703Z,66.70
2023-05-09T21:23:47.962Z,67.30
2023-05-09T21:26:15.088Z,66.70
2023-05-09T21:28:42.307Z,66.90
2023-05-09T21:31:11.251Z,66.80
2023-05-09T21:33:38.833Z,67.10
2023-05-09T21:36:07.726Z,67.20
2023-05-09T21:38:34.902Z,67.40
2023-05-09T21:41:02.067Z,67.50
2023-05-09T21:43:29.224Z,67.80
2023-05-09T21:45:56.809Z,67.90
2023-05-09T21:48:24.013Z,68.00
2023-05-09T21:50:51.173Z,68.10
2023-05-09T21:53:18.480Z,68.40
2023-05-09T21:55:45.760Z,68.40
2023-05-09T21:58:12.970Z,68.70
2023-05-09T22:00:40.302Z,68.80
2023-05-09T22:03:07.742Z,69.00
2023-05-09T22:05:35.274Z,69.20
2023-05-09T22:08:07.036Z,69.30
2023-05-09T22:10:34.950Z,69.50
2023-05-09T22:13:02.217Z,69.50
2023-05-09T22:15:29.564Z,69.90
2023-05-09T22:17:56.722Z,70.30
2023-05-09T22:20:24.183Z,69.80
2023-05-09T22:22:51.384Z,70.10
2023-05-09T22:25:18.734Z,70.30
2023-05-09T22:27:45.968Z,70.30
2023-05-09T22:30:13.635Z,70.50
2023-05-09T22:32:41.003Z,70.70
2023-05-09T22:35:08.775Z,70.80
2023-05-09T22:37:36.238Z,71.10
2023-05-09T22:40:03.904Z,71.30
2023-05-09T22:42:31.163Z,71.30
2023-05-09T22:44:58.295Z,71.70
2023-05-09T22:47:25.542Z,71.70
2023-05-09T22:49:53.237Z,71.80
2023-05-09T22:52:20.658Z,72.10
2023-05-09T22:54:47.812Z,72.20
2023-05-09T22:57:17.745Z,72.50
2023-05-09T22:59:45.418Z,72.60
2023-05-09T23:02:13.203Z,72.70
2023-05-09T23:04:40.475Z,72.80
2023-05-09T23:07:07.808Z,73.10
2023-05-09T23:09:35.012Z,73.20
2023-05-09T23:12:02.663Z,73.30
2023-05-09T23:14:30.004Z,73.40
2023-05-09T23:16:57.286Z,73.90
2023-05-09T23:19:24.452Z,74.80
2023-05-09T23:21:51.616Z,74.10
2023-05-09T23:24:18.809Z,74.30
2023-05-09T23:26:45.990Z,74.50
2023-05-09T23:29:13.151Z,74.60
2023-05-09T23:31:40.676Z,74.90
2023-05-09T23:34:07.954Z,75.00
2023-05-09T23:36:35.175Z,75.30
2023-05-09T23:39:02.296Z,75.40
2023-05-09T23:41:29.605Z,76.30
2023-05-09T23:43:58.196Z,75.90
2023-05-09T23:46:25.308Z,76.00
2023-05-09T23:48:52.433Z,76.10
2023-05-09T23:51:21.595Z,76.10
2023-05-09T23:53:49.401Z,76.40
2023-05-09T23:56:16.518Z,76.50
2023-05-09T23:58:43.749Z,76.80
